< Cyclone 198614 1986 Season Cyclone 198701 >
Cyclone 198615 (NAMU)
General InformationTrack Information on Google MapsDetailed Wind InformationList of All Images || ResourceGoogle EarthGE AnimationAtom FeedGeoJSON
Detalied Best Track (Time Zone = UTC)
Year Month Day Hour Lat. Long. Pressure (hPa) Wind (kt) Class Image Chart
1986 5 16 18 -6.9 163.9 1000 8 2 Image --
1986 5 17 00 -7.3 164.1 999 19 2 Image --
1986 5 17 06 -7.7 164.0 997 25 2 Image --
1986 5 17 12 -8.1 163.5 995 35 3 Image --
1986 5 17 18 -8.5 163.0 992 37 3 Image --
1986 5 18 00 -8.8 162.5 988 41 3 Image --
1986 5 18 06 -9.0 162.0 984 43 3 Image --
1986 5 18 12 -9.3 161.4 980 47 3 Image --
1986 5 18 18 -9.6 160.8 976 51 4 Image --
1986 5 19 00 -10.0 160.1 973 56 4 Image --
1986 5 19 06 -10.5 159.5 969 60 4 Image --
1986 5 19 12 -11.0 159.1 966 64 5 Image --
1986 5 19 18 -11.9 158.9 965 66 5 Image --
1986 5 20 00 -12.7 158.7 963 68 5 Image --
1986 5 20 06 -13.3 158.4 961 70 5 Image --
1986 5 20 12 -14.1 158.3 960 70 5 Image --
1986 5 20 18 -15.3 158.8 964 66 5 Image --
1986 5 21 00 -16.5 159.6 972 62 4 Image --
1986 5 21 06 -17.2 160.8 988 43 3 Image --
1986 5 21 12 -17.5 162.1 1001 25 2 Image --
1986 5 21 18 -17.6 163.8 1008 14 2 Image --
1986 5 22 00 -18.3 165.4 1008 12 2 Image --
< Cyclone 198614 1986 Season Cyclone 198701 >

Help